Terminal Aerodrome Forecast
Issued by NWS

Home | Current Version | Previous Version | Text Only | Print | Product List | Glossary On
Versions: 1 2 3 4 5 6 7 8 9 10 11 12 13 14 15 16 17
704
FTUS45 KABQ 221133
TAFSAF
TAF
KSAF 221133Z 2212/2312 36008KT P6SM SCT060 BKN100
     FM221700 12010KT P6SM SCT070 SCT150
     FM222200 13012G18KT P6SM VCTS BKN070CB
     FM230200 13015G25KT P6SM VCSH BKN060=

USA.gov is the U.S. government's official web portal to all federal, state and local government web resources and services.